Time;durP1;ratioP1;P1;durP2;ratioP2;P2;SDS_P1;SDS_P2;PMS_P1;PMS_P2;Temp;Humidity;BMP_temperature;BMP_pressure;BME280_temperature;BME280_humidity;BME280_pressure;Samples;Min_cycle;Max_cycle;Signal;HPM_P1;HPM_P2
2023/08/14 00:09:39;;;;;;;4.00;3.70;;;;;;;19.47;74.89;99730.39;433791;1260;140549;-59
2023/08/14 00:19:45;;;;;;;5.60;4.00;;;;;;;19.61;74.96;99722.52;433443;1260;139407;-58
2023/08/14 00:29:51;;;;;;;3.70;3.40;;;;;;;19.67;74.83;99718.97;434160;1260;138855;-58
2023/08/14 00:39:58;;;;;;;4.20;3.80;;;;;;;19.62;75.05;99721.10;434008;1258;139528;-58
2023/08/14 00:50:04;;;;;;;4.30;3.80;;;;;;;19.54;75.77;99722.60;433983;1260;139657;-58
2023/08/14 01:00:13;;;;;;;4.40;4.00;;;;;;;19.48;76.50;99716.86;433847;1260;139077;-57
2023/08/14 01:10:19;;;;;;;4.30;3.90;;;;;;;19.43;77.40;99722.11;435253;1256;141029;-58
2023/08/14 01:20:29;;;;;;;4.50;4.10;;;;;;;19.39;77.98;99728.42;433682;1257;140349;-60
2023/08/14 01:30:34;;;;;;;3.60;3.30;;;;;;;19.33;78.58;99729.70;433803;1258;140719;-60
2023/08/14 01:40:46;;;;;;;5.20;4.50;;;;;;;19.27;79.21;99730.24;433878;1257;140959;-58
2023/08/14 01:50:54;;;;;;;4.50;4.10;;;;;;;19.17;79.75;99729.98;433880;1256;139490;-59
2023/08/14 02:00:59;;;;;;;3.20;3.00;;;;;;;19.07;80.46;99734.14;433938;1256;140830;-59
2023/08/14 02:11:09;;;;;;;4.60;4.20;;;;;;;18.96;81.46;99731.06;433877;1258;139199;-59
2023/08/14 02:21:16;;;;;;;4.60;4.20;;;;;;;18.86;82.54;99724.91;433909;1256;139849;-59
2023/08/14 02:31:22;;;;;;;4.80;4.50;;;;;;;18.76;83.40;99717.55;433888;1256;139523;-58
2023/08/14 02:41:29;;;;;;;5.50;5.00;;;;;;;18.65;83.94;99725.52;434282;1260;139550;-58
2023/08/14 02:51:35;;;;;;;4.80;4.50;;;;;;;18.53;84.99;99725.61;434050;1258;139463;-59
2023/08/14 03:01:40;;;;;;;5.70;5.20;;;;;;;18.41;86.20;99720.02;434180;1256;139301;-58
2023/08/14 03:11:46;;;;;;;6.20;5.70;;;;;;;18.39;87.85;99720.77;433505;1256;139312;-59
2023/08/14 03:21:52;;;;;;;6.60;5.70;;;;;;;18.46;89.09;99714.05;433748;1256;140447;-58
2023/08/14 03:31:58;;;;;;;5.20;4.80;;;;;;;18.56;89.63;99717.37;433676;1256;141168;-60
2023/08/14 03:42:04;;;;;;;5.30;4.90;;;;;;;18.64;89.99;99725.98;433915;1256;139080;-58
2023/08/14 03:52:10;;;;;;;5.90;5.50;;;;;;;18.72;90.17;99729.27;433825;1256;139615;-62
2023/08/14 04:02:16;;;;;;;6.20;5.70;;;;;;;18.81;90.24;99721.36;433704;1256;139879;-58
2023/08/14 04:12:22;;;;;;;5.90;5.40;;;;;;;18.91;90.47;99731.58;434595;1260;139363;-60
2023/08/14 04:22:28;;;;;;;6.00;5.50;;;;;;;19.06;90.63;99733.67;434079;1259;139364;-58
2023/08/14 04:32:34;;;;;;;7.10;5.70;;;;;;;19.31;90.58;99742.62;434153;1256;139630;-60
2023/08/14 04:42:41;;;;;;;5.80;5.30;;;;;;;19.59;90.24;99742.61;434247;1256;138934;-60
2023/08/14 04:52:46;;;;;;;6.10;5.50;;;;;;;20.01;89.98;99761.16;434299;1256;140859;-59
2023/08/14 05:02:52;;;;;;;6.70;6.10;;;;;;;20.32;88.64;99755.91;434177;1260;140764;-57
2023/08/14 05:12:58;;;;;;;6.30;5.70;;;;;;;20.36;87.68;99756.75;434217;1256;139417;-58
2023/08/14 05:23:05;;;;;;;6.10;5.20;;;;;;;20.49;88.08;99750.77;433965;1259;138808;-60
2023/08/14 05:33:11;;;;;;;7.80;5.90;;;;;;;20.95;87.51;99742.16;434294;1260;139109;-58
2023/08/14 05:43:17;;;;;;;6.60;5.50;;;;;;;21.29;86.35;99752.04;433830;1256;139154;-60
2023/08/14 05:53:23;;;;;;;7.50;6.40;;;;;;;21.62;85.33;99773.36;434028;1256;139411;-61
2023/08/14 06:03:29;;;;;;;8.50;5.20;;;;;;;22.23;85.79;99761.95;433414;1259;139542;-59
2023/08/14 06:13:49;;;;;;;10.00;5.70;;;;;;;23.69;81.82;99771.58;433669;1256;140243;-58
2023/08/14 06:23:54;;;;;;;5.80;5.00;;;;;;;23.58;77.74;99771.80;433751;1256;140570;-58
2023/08/14 06:34:00;;;;;;;5.40;4.90;;;;;;;23.24;76.92;99768.23;433576;1258;138994;-58
2023/08/14 06:44:09;;;;;;;5.60;5.10;;;;;;;23.20;79.65;99769.69;433620;1256;139153;-58
2023/08/14 06:54:15;;;;;;;5.50;3.80;;;;;;;29.01;81.11;99780.77;434252;1256;138872;-59
2023/08/14 07:04:21;;;;;;;5.10;4.60;;;;;;;30.62;65.85;99789.25;433753;1260;138443;-60
2023/08/14 07:14:27;;;;;;;3.60;3.30;;;;;;;33.32;64.40;99793.35;433886;1255;139828;-60
2023/08/14 07:24:35;;;;;;;3.50;3.20;;;;;;;35.49;54.08;99804.98;433758;1260;139021;-62
2023/08/14 07:34:41;;;;;;;2.70;2.10;;;;;;;37.07;51.69;99812.89;434055;1254;139179;-63
2023/08/14 07:44:47;;;;;;;8.40;6.70;;;;;;;42.96;45.09;99809.91;434386;1256;139325;-63
2023/08/14 07:54:53;;;;;;;4.40;3.60;;;;;;;48.40;36.93;99817.55;434221;1256;138077;-61
2023/08/14 08:04:59;;;;;;;3.80;3.50;;;;;;;51.80;30.65;99821.09;434741;1260;138094;-61
2023/08/14 08:15:06;;;;;;;3.10;2.90;;;;;;;49.66;27.78;99819.45;433798;1260;138787;-60
2023/08/14 08:25:12;;;;;;;14.20;3.40;;;;;;;45.41;28.78;99821.00;434191;1256;138780;-58
2023/08/14 08:35:18;;;;;;;4.80;3.30;;;;;;;42.55;30.61;99822.30;433720;1257;138159;-62
2023/08/14 08:45:28;;;;;;;7.80;3.10;;;;;;;40.38;32.24;99814.20;433767;1260;138583;-60
2023/08/14 08:55:34;;;;;;;2.80;2.50;;;;;;;38.37;33.73;99816.67;433385;1256;138251;-64
2023/08/14 09:05:41;;;;;;;4.50;2.30;;;;;;;36.51;35.33;99815.59;433774;1259;139125;-70
2023/08/14 09:15:47;;;;;;;3.40;2.50;;;;;;;35.15;37.30;99805.88;434038;1256;138177;-71
2023/08/14 09:25:53;;;;;;;2.50;2.30;;;;;;;34.35;38.61;99805.52;436182;1256;141062;-71
2023/08/14 09:36:00;;;;;;;6.00;2.30;;;;;;;33.97;39.60;99793.63;437543;1256;137950;-60
2023/08/14 09:46:06;;;;;;;2.90;2.70;;;;;;;33.67;40.34;99787.97;433863;1256;138233;-67
2023/08/14 09:56:11;;;;;;;;;;;;;;;33.25;41.03;99786.92;434371;1260;138947;-64
2023/08/14 10:06:18;;;;;;;2.30;2.10;;;;;;;32.76;41.09;99781.30;434008;1260;124669;-64
2023/08/14 10:16:31;;;;;;;2.50;2.10;;;;;;;32.24;41.40;99783.61;433989;1256;139154;-67
2023/08/14 10:26:37;;;;;;;2.10;1.90;;;;;;;31.86;42.17;99791.21;435098;1255;138304;-64
2023/08/14 10:36:43;;;;;;;3.00;2.60;;;;;;;31.60;42.90;99795.17;433842;1256;138176;-63
2023/08/14 10:46:49;;;;;;;3.80;2.90;;;;;;;31.37;43.05;99790.91;433703;1256;139059;-58
2023/08/14 10:57:00;;;;;;;2.90;2.60;;;;;;;31.21;43.61;99782.45;433605;1256;138577;-57
2023/08/14 11:07:11;;;;;;;4.00;3.20;;;;;;;30.98;44.27;99778.88;434202;1256;140373;-58
2023/08/14 11:17:17;;;;;;;3.30;3.10;;;;;;;30.57;45.08;99775.52;434187;1260;138046;-58
2023/08/14 11:27:25;;;;;;;4.80;3.50;;;;;;;30.35;45.94;99772.54;433486;1259;140126;-58
2023/08/14 11:37:31;;;;;;;3.70;3.40;;;;;;;30.24;46.67;99763.50;433863;1259;138100;-62
2023/08/14 11:47:44;;;;;;;4.80;3.50;;;;;;;30.33;46.80;99755.09;434890;1256;138063;-59
2023/08/14 11:57:50;;;;;;;3.60;2.70;;;;;;;30.25;46.92;99750.45;433805;1256;182585;-59
2023/08/14 12:08:02;;;;;;;2.60;2.40;;;;;;;30.10;47.14;99746.33;433874;1259;138950;-61
2023/08/14 12:18:12;;;;;;;3.10;2.90;;;;;;;30.23;47.10;99745.27;433881;1256;139269;-67
2023/08/14 12:28:21;;;;;;;5.70;2.70;;;;;;;30.50;46.74;99746.21;434417;1259;138391;-64
2023/08/14 12:38:28;;;;;;;4.50;2.50;;;;;;;30.69;46.32;99748.02;434537;1256;139420;-63
2023/08/14 12:48:34;;;;;;;3.70;2.30;;;;;;;30.94;45.63;99744.15;433420;1260;138530;-64
2023/08/14 12:58:40;;;;;;;3.80;2.30;;;;;;;31.05;45.11;99735.73;433557;1260;138293;-63
2023/08/14 13:08:45;;;;;;;2.80;2.60;;;;;;;31.11;44.09;99731.39;433816;1259;139437;-62
2023/08/14 13:18:52;;;;;;;3.10;2.90;;;;;;;31.22;43.08;99721.50;435030;1260;139031;-62
2023/08/14 13:28:57;;;;;;;3.80;3.00;;;;;;;31.10;42.28;99715.92;433954;1259;138853;-62
2023/08/14 13:39:05;;;;;;;3.20;2.90;;;;;;;30.93;42.09;99710.84;434038;1260;138671;-62
2023/08/14 13:49:11;;;;;;;1.90;1.70;;;;;;;30.89;41.11;99707.48;434838;1260;138126;-62
2023/08/14 13:59:17;;;;;;;1.80;1.60;;;;;;;30.82;39.70;99700.45;434156;1256;138095;-62
2023/08/14 14:09:23;;;;;;;2.20;2.00;;;;;;;30.74;38.24;99695.92;434055;1260;138570;-63
2023/08/14 14:19:30;;;;;;;2.50;2.30;;;;;;;30.79;37.88;99694.48;433917;1260;138544;-59
2023/08/14 14:29:34;;;;;;;;;;;;;;;30.92;37.62;99681.70;433795;1260;138568;-64
2023/08/14 14:39:40;;;;;;;3.60;2.20;;;;;;;30.95;37.16;99674.62;434251;1260;124879;-66
2023/08/14 14:49:46;;;;;;;2.50;2.10;;;;;;;30.84;37.07;99668.11;433873;1260;138599;-65
2023/08/14 14:59:52;;;;;;;3.70;2.60;;;;;;;30.80;36.84;99656.83;434836;1256;139111;-61
2023/08/14 15:09:58;;;;;;;2.50;2.30;;;;;;;30.68;36.45;99650.66;433706;1260;138292;-61
2023/08/14 15:20:06;;;;;;;3.30;2.30;;;;;;;30.56;36.38;99645.00;433866;1260;139460;-61
2023/08/14 15:30:14;;;;;;;4.10;1.90;;;;;;;30.50;36.34;99637.48;434588;1260;138082;-61
2023/08/14 15:40:20;;;;;;;4.00;2.20;;;;;;;30.41;35.76;99641.14;434201;1260;138619;-59
2023/08/14 15:50:26;;;;;;;2.10;1.90;;;;;;;30.33;35.67;99639.09;434185;1260;138887;-61
2023/08/14 16:00:32;;;;;;;5.10;2.10;;;;;;;30.27;35.48;99641.25;433818;1260;138603;-62
2023/08/14 16:10:38;;;;;;;3.30;1.90;;;;;;;30.21;35.98;99641.98;434082;1260;139347;-62
2023/08/14 16:20:44;;;;;;;10.20;5.40;;;;;;;30.10;36.37;99651.86;434182;1260;138655;-61
2023/08/14 16:30:51;;;;;;;4.80;2.70;;;;;;;30.33;36.07;99661.58;434367;1260;138299;-63
2023/08/14 16:40:57;;;;;;;16.90;3.60;;;;;;;30.73;35.50;99669.49;434170;1257;139382;-60
2023/08/14 16:51:04;;;;;;;4.10;3.80;;;;;;;30.71;35.70;99681.58;433906;1259;138840;-68
2023/08/14 17:01:10;;;;;;;5.90;3.30;;;;;;;30.40;36.60;99681.78;434343;1260;140004;-60
2023/08/14 17:11:16;;;;;;;8.30;6.10;;;;;;;29.96;37.49;99677.95;434035;1260;140072;-57
2023/08/14 17:21:22;;;;;;;9.40;3.30;;;;;;;29.42;38.45;99671.23;433671;1260;140231;-59
2023/08/14 17:31:29;;;;;;;5.80;2.90;;;;;;;28.82;39.08;99671.06;434020;1260;138339;-59
2023/08/14 17:41:33;;;;;;;;;;;;;;;28.29;40.17;99679.69;434259;1260;139902;-59
2023/08/14 17:51:39;;;;;;;8.30;3.50;;;;;;;27.77;41.67;99691.38;434083;1260;124820;-58
2023/08/14 18:01:45;;;;;;;3.90;3.20;;;;;;;27.26;43.05;99694.77;433994;1260;138646;-59
2023/08/14 18:11:51;;;;;;;14.10;5.50;;;;;;;26.75;44.35;99695.63;434225;1258;138964;-58
2023/08/14 18:21:57;;;;;;;10.50;5.40;;;;;;;26.28;45.37;99702.76;434104;1260;139686;-60
2023/08/14 18:32:05;;;;;;;8.20;4.80;;;;;;;25.87;47.05;99708.68;434230;1259;138367;-59
2023/08/14 18:42:10;;;;;;;14.50;6.30;;;;;;;25.46;49.10;99714.39;434281;1258;138237;-60
2023/08/14 18:52:16;;;;;;;6.40;5.40;;;;;;;25.03;50.84;99722.52;433988;1260;138753;-62
2023/08/14 19:02:22;;;;;;;10.40;7.70;;;;;;;24.62;51.53;99723.88;434086;1257;139062;-61
2023/08/14 19:12:29;;;;;;;11.00;8.20;;;;;;;24.27;52.90;99729.29;434699;1258;139454;-60
2023/08/14 19:22:34;;;;;;;15.20;10.50;;;;;;;23.95;54.26;99729.26;434514;1260;138510;-60
2023/08/14 19:32:40;;;;;;;11.60;7.60;;;;;;;23.65;55.54;99733.30;434312;1257;138807;-59
2023/08/14 19:42:46;;;;;;;14.10;10.20;;;;;;;23.39;56.58;99736.73;434194;1260;138656;-61
2023/08/14 19:52:52;;;;;;;11.10;10.00;;;;;;;23.13;57.64;99745.73;434076;1258;138932;-58
2023/08/14 20:02:58;;;;;;;11.00;8.80;;;;;;;22.87;58.25;99753.59;434086;1257;139135;-58
2023/08/14 20:13:05;;;;;;;15.00;9.50;;;;;;;22.65;59.36;99765.80;434143;1258;139064;-59
2023/08/14 20:23:11;;;;;;;13.60;10.30;;;;;;;22.42;60.03;99776.68;434560;1256;139056;-59
2023/08/14 20:33:17;;;;;;;13.00;8.10;;;;;;;22.20;60.59;99771.23;434221;1256;140471;-60
2023/08/14 20:43:28;;;;;;;13.20;8.90;;;;;;;22.02;61.23;99764.80;434353;1257;139450;-60
2023/08/14 20:53:34;;;;;;;13.00;11.40;;;;;;;21.90;61.42;99765.16;434620;1256;141064;-59
2023/08/14 21:03:40;;;;;;;8.90;7.00;;;;;;;21.76;62.24;99763.60;434404;1258;140769;-61
2023/08/14 21:13:46;;;;;;;11.40;7.60;;;;;;;21.62;62.41;99759.79;434471;1260;138967;-59
2023/08/14 21:23:52;;;;;;;11.70;7.40;;;;;;;21.49;63.29;99768.30;434433;1258;138814;-60
2023/08/14 21:33:58;;;;;;;18.70;8.80;;;;;;;21.36;63.67;99766.16;433988;1260;139986;-61
2023/08/14 21:44:04;;;;;;;13.60;9.90;;;;;;;21.24;64.18;99770.45;433895;1257;139675;-59
2023/08/14 21:54:11;;;;;;;15.20;11.70;;;;;;;21.05;64.48;99760.69;434563;1257;138831;-59
2023/08/14 22:04:17;;;;;;;10.30;9.30;;;;;;;20.92;64.84;99763.81;434557;1260;140340;-62
2023/08/14 22:14:24;;;;;;;11.50;8.10;;;;;;;20.77;65.53;99758.59;433831;1258;142191;-59
2023/08/14 22:24:30;;;;;;;9.60;6.10;;;;;;;20.62;65.70;99759.77;434480;1256;139163;-59
2023/08/14 22:34:46;;;;;;;10.40;6.40;;;;;;;20.59;65.55;99752.21;434090;1256;139629;-59
2023/08/14 22:44:51;;;;;;;9.20;7.90;;;;;;;20.55;65.48;99753.87;434061;1256;140142;-60
2023/08/14 22:54:57;;;;;;;10.10;9.10;;;;;;;20.47;65.75;99754.68;434381;1260;138748;-60
2023/08/14 23:05:03;;;;;;;11.40;9.50;;;;;;;20.36;65.48;99753.70;433860;1256;139991;-59
2023/08/14 23:15:11;;;;;;;12.60;11.40;;;;;;;20.25;66.13;99749.10;433793;1257;141419;-60
2023/08/14 23:25:18;;;;;;;10.50;8.50;;;;;;;20.09;66.82;99743.48;433713;1256;141363;-59
2023/08/14 23:35:24;;;;;;;9.50;8.40;;;;;;;19.98;66.67;99736.58;433777;1256;139951;-59
2023/08/14 23:45:30;;;;;;;10.80;9.80;;;;;;;19.92;67.08;99739.45;433889;1260;140809;-60
2023/08/14 23:55:36;;;;;;;10.20;7.40;;;;;;;19.80;67.48;99743.85;434153;1260;181163;-60
